CPG5 weather

Hawkesbury (East) Airport
Hawkesbury, Ontario, Canada

Public forecast

Using degrees Celsius for public forecast. Weather courtesy of forecast.io.

METAR (pilot weather report)

Closest report is Montreal International (Mirabel) Airport, 22.2 nm (41.1 km) ENE. Retrieved 2019/05/22 14:00 UTC (27 minutes ago):

CYMX 221400Z 01004KT 310V050 45SM FEW015 BKN260 15/02 A3027 RMK CF1CI6 CF TR SLP255

TAF (pilot weather forecast)

Closest forecast is Montreal International (Mirabel) Airport, 22.2 nm (41.1 km) ENE. Retrieved 2019/05/22 12:42 UTC (2 hours ago):

TAF CYMX 221138Z 2212/2312 VRB03KT P6SM SKC BECMG 2217/2219 19007KT FM222000 19007KT P6SM FEW040 BKN200 FM230000 19007KT P6SM FEW040 BKN160 BECMG 2302/2304 VRB03KT FM230600 VRB03KT P6SM BKN090 FM231100 10006KT P6SM BKN050 RMK NXT FCST BY 221800Z